Time;durP1;ratioP1;P1;durP2;ratioP2;P2;SDS_P1;SDS_P2;PMS_P1;PMS_P2;Temp;Humidity;BMP_temperature;BMP_pressure;BME280_temperature;BME280_humidity;BME280_pressure;Samples;Min_cycle;Max_cycle;Signal;HPM_P1;HPM_P2
2021/06/15 00:02:21;;;;;;;2.47;1.70;;;;;;;17.27;75.85;99939.59;6189582;22;20013;-71
2021/06/15 00:04:46;;;;;;;2.95;1.75;;;;;;;17.23;75.65;99937.31;6189363;22;20013;-72
2021/06/15 00:07:12;;;;;;;2.85;1.70;;;;;;;17.37;75.88;99924.50;6189547;23;20459;-72
2021/06/15 00:09:40;;;;;;;4.00;1.80;;;;;;;16.98;78.10;99924.97;6162582;23;20060;-72
2021/06/15 00:12:13;;;;;;;2.28;1.83;;;;;;;17.30;76.66;99911.19;6189168;23;20009;-71
2021/06/15 00:14:39;;;;;;;2.10;1.70;;;;;;;17.27;76.38;99908.75;6189419;22;20020;-72
2021/06/15 00:17:07;;;;;;;2.75;1.83;;;;;;;16.97;77.11;99914.78;6189240;23;20313;-72
2021/06/15 00:19:32;;;;;;;2.30;1.70;;;;;;;17.03;77.13;99904.19;6162302;23;20091;-72
2021/06/15 00:21:58;;;;;;;2.70;1.67;;;;;;;17.06;77.72;99909.97;6162836;23;20009;-72
2021/06/15 00:24:24;;;;;;;4.88;1.60;;;;;;;17.21;76.85;99905.72;6188924;23;20013;-72
2021/06/15 00:26:50;;;;;;;4.40;1.80;;;;;;;17.19;76.08;99903.22;6162626;23;20051;-72
2021/06/15 00:29:15;;;;;;;2.20;1.70;;;;;;;17.12;77.27;99907.06;6189803;23;20017;-72
2021/06/15 00:31:43;;;;;;;2.60;1.42;;;;;;;17.01;77.07;99908.59;6162922;23;20094;-71
2021/06/15 00:34:10;;;;;;;2.13;1.50;;;;;;;17.12;77.80;99909.63;6189390;22;20013;-72
2021/06/15 00:36:35;;;;;;;2.95;1.58;;;;;;;17.10;77.91;99913.19;6163084;22;20030;-72
2021/06/15 00:39:01;;;;;;;3.05;1.48;;;;;;;17.08;77.72;99913.28;6189375;22;20364;-73
2021/06/15 00:41:26;;;;;;;2.28;1.70;;;;;;;17.07;78.21;99919.31;6189206;23;20346;-72
2021/06/15 00:43:52;;;;;;;4.47;1.70;;;;;;;17.02;78.22;99917.94;6189359;23;20101;-72
2021/06/15 00:46:23;;;;;;;2.05;1.40;;;;;;;17.25;78.84;99913.16;6162635;23;20008;-72
2021/06/15 00:48:49;;;;;;;4.25;1.77;;;;;;;16.93;78.86;99915.88;6189043;23;20064;-71
2021/06/15 00:51:15;;;;;;;4.55;1.70;;;;;;;17.30;78.26;99912.91;6188623;23;20070;-70
2021/06/15 00:53:42;;;;;;;3.95;1.60;;;;;;;17.08;78.60;99918.44;6189228;23;20384;-72
2021/06/15 00:56:09;;;;;;;3.42;1.80;;;;;;;17.21;77.83;99903.97;6189021;23;20009;-72
2021/06/15 00:58:35;;;;;;;3.33;1.67;;;;;;;17.02;79.17;99907.66;6161949;23;20463;-71
2021/06/15 01:01:05;;;;;;;2.92;1.85;;;;;;;17.45;77.69;99908.66;6188921;23;20383;-71
2021/06/15 01:03:34;;;;;;;4.43;1.90;;;;;;;17.10;79.46;99915.75;6162360;22;20009;-71
2021/06/15 01:06:05;;;;;;;1.95;1.70;;;;;;;16.98;80.02;99917.28;6162544;23;20028;-72
2021/06/15 01:09:00;;;;;;;3.27;1.70;;;;;;;17.17;79.38;99917.09;6188999;23;20009;-71
2021/06/15 01:11:37;;;;;;;2.90;1.83;;;;;;;16.92;80.08;99912.47;6188470;23;20028;-72
2021/06/15 01:14:43;;;;;;;3.00;1.80;;;;;;;17.27;79.60;99913.09;6188798;23;20416;-72
2021/06/15 01:17:17;;;;;;;3.65;1.75;;;;;;;16.83;80.64;99915.56;6189006;22;20020;-72
2021/06/15 01:20:06;;;;;;;3.25;1.70;;;;;;;16.97;80.56;99925.06;6188975;23;20371;-72
2021/06/15 01:22:49;;;;;;;2.20;1.83;;;;;;;16.98;79.97;99924.97;6188928;23;20272;-72
2021/06/15 01:25:27;;;;;;;4.88;1.50;;;;;;;17.10;80.27;99928.59;6189087;23;20049;-72
2021/06/15 01:28:08;;;;;;;2.63;1.63;;;;;;;16.83;81.48;99925.84;6188901;23;20134;-72
2021/06/15 01:31:03;;;;;;;3.45;1.77;;;;;;;16.83;80.98;99925.00;6189293;23;20016;-73
2021/06/15 01:33:32;;;;;;;2.45;1.50;;;;;;;16.90;80.28;99922.00;6189711;23;20080;-72
2021/06/15 01:36:01;;;;;;;3.80;2.10;;;;;;;16.58;82.85;99919.53;6162570;22;20024;-72
2021/06/15 01:38:37;;;;;;;4.80;2.17;;;;;;;16.83;81.71;99922.44;6162403;23;20259;-73
2021/06/15 01:41:16;;;;;;;4.35;2.30;;;;;;;17.06;81.48;99929.69;6188659;23;20420;-72
2021/06/15 01:43:51;;;;;;;3.75;2.00;;;;;;;17.12;79.83;99925.06;6188804;23;20025;-72
2021/06/15 01:46:27;;;;;;;3.30;2.13;;;;;;;16.92;80.53;99924.47;6188894;23;20081;-72
2021/06/15 01:49:02;;;;;;;3.47;2.05;;;;;;;17.05;81.82;99934.03;6189296;23;20293;-71
2021/06/15 01:51:29;;;;;;;4.78;2.45;;;;;;;17.00;82.48;99925.72;6188486;23;20005;-71
2021/06/15 01:53:58;;;;;;;3.65;2.33;;;;;;;17.17;80.83;99938.44;6162510;23;20048;-71
2021/06/15 01:56:27;;;;;;;2.42;1.80;;;;;;;16.94;79.89;99936.34;6188616;23;20060;-71
2021/06/15 01:58:56;;;;;;;3.72;2.30;;;;;;;16.82;80.87;99939.56;6188162;22;20032;-71
2021/06/15 02:01:26;;;;;;;4.22;2.30;;;;;;;16.86;81.01;99940.22;6188533;23;20013;-72
2021/06/15 02:03:54;;;;;;;2.65;2.15;;;;;;;17.02;81.54;99943.63;6188503;23;20024;-71
2021/06/15 02:06:22;;;;;;;3.88;2.47;;;;;;;17.46;80.96;99938.56;6188523;23;20357;-71
2021/06/15 02:08:53;;;;;;;2.67;2.30;;;;;;;16.84;80.46;99952.31;6161780;22;20005;-71
2021/06/15 02:11:22;;;;;;;4.47;2.50;;;;;;;17.02;79.76;99954.72;6162117;22;20016;-71
2021/06/15 02:13:49;;;;;;;3.22;2.20;;;;;;;17.34;78.70;99952.94;6188311;23;20072;-71
2021/06/15 02:16:16;;;;;;;3.15;2.30;;;;;;;17.17;79.88;99948.72;6188614;23;20058;-71
2021/06/15 02:18:51;;;;;;;4.80;2.20;;;;;;;17.00;79.59;99951.41;6161823;23;20024;-72
2021/06/15 02:21:19;;;;;;;2.22;1.98;;;;;;;17.00;79.32;99946.28;6188288;23;20009;-71
2021/06/15 02:23:47;;;;;;;3.45;2.05;;;;;;;17.15;80.04;99950.56;6188702;23;20009;-72
2021/06/15 02:26:17;;;;;;;4.75;2.22;;;;;;;17.18;79.46;99954.72;6188318;23;20105;-72
2021/06/15 02:28:44;;;;;;;2.65;2.00;;;;;;;17.22;78.66;99951.06;6189053;22;20012;-71
2021/06/15 02:31:27;;;;;;;3.10;2.00;;;;;;;16.97;81.15;99948.19;6188568;23;20097;-72
2021/06/15 02:33:54;;;;;;;3.90;2.20;;;;;;;16.88;80.70;99941.81;6188524;23;20039;-72
2021/06/15 02:36:27;;;;;;;2.65;1.90;;;;;;;17.00;82.62;99945.44;6188200;23;20012;-72
2021/06/15 02:38:59;;;;;;;2.58;1.98;;;;;;;17.25;81.45;99949.13;6188556;23;20368;-71
2021/06/15 02:41:26;;;;;;;4.03;1.77;;;;;;;17.14;80.20;99951.50;6188431;23;20009;-70
2021/06/15 02:43:59;;;;;;;3.08;1.70;;;;;;;17.08;80.77;99954.38;6188281;23;20110;-72
2021/06/15 02:46:27;;;;;;;3.30;1.88;;;;;;;16.79;81.03;99957.72;6188456;23;20146;-71
2021/06/15 02:48:57;;;;;;;2.92;1.90;;;;;;;17.20;78.80;99958.03;6188465;23;20085;-71
2021/06/15 02:51:27;;;;;;;4.65;2.08;;;;;;;16.98;80.03;99960.09;6162029;23;20017;-71
2021/06/15 02:54:05;;;;;;;3.55;1.80;;;;;;;17.13;79.75;99967.78;6188023;23;20024;-70
2021/06/15 02:56:36;;;;;;;1.80;1.70;;;;;;;17.13;80.23;99969.56;6162064;23;20016;-70
2021/06/15 02:59:01;;;;;;;4.90;1.90;;;;;;;16.92;80.00;99971.53;6156204;22;20034;-70
2021/06/15 03:01:27;;;;;;;2.08;1.73;;;;;;;16.99;80.01;99970.31;6156501;23;20072;-70
2021/06/15 03:03:53;;;;;;;3.10;1.90;;;;;;;16.87;80.84;99970.97;6158511;23;20010;-72
2021/06/15 03:06:19;;;;;;;2.13;1.90;;;;;;;16.92;81.46;99974.13;6155203;23;20017;-70
2021/06/15 03:08:45;;;;;;;2.25;1.88;;;;;;;17.05;81.26;99979.44;6157467;23;20010;-70
2021/06/15 03:11:16;;;;;;;3.72;2.28;;;;;;;16.93;81.74;99977.53;6157418;23;20391;-72
2021/06/15 03:13:48;;;;;;;;;;;;;;;16.93;84.29;99980.94;6156408;23;20117;-71
2021/06/15 03:16:22;;;;;;;4.22;2.50;;;;;;;16.89;87.30;99983.72;6158080;23;19968;-69
2021/06/15 03:18:54;;;;;;;3.80;2.80;;;;;;;17.00;86.89;99982.22;6158294;23;20014;-71
2021/06/15 03:21:24;;;;;;;;;;;;;;;16.93;90.12;99996.34;6158139;23;20216;-70
2021/06/15 03:24:02;;;;;;;6.00;2.80;;;;;;;16.78;88.32;99981.72;6158055;23;19920;-71
2021/06/15 03:26:45;;;;;;;3.53;2.92;;;;;;;16.87;91.49;99988.97;6158104;23;20256;-72
2021/06/15 03:29:17;;;;;;;5.85;3.30;;;;;;;16.55;95.36;99982.13;6155840;23;20013;-71
2021/06/15 03:31:45;;;;;;;4.70;3.13;;;;;;;16.64;97.90;99983.38;6158049;23;20036;-72
2021/06/15 03:34:15;;;;;;;4.28;3.13;;;;;;;16.44;100.00;99972.38;6156786;23;20350;-72
2021/06/15 03:36:43;;;;;;;5.67;3.40;;;;;;;16.54;95.97;99974.50;6158066;23;20010;-72
2021/06/15 03:39:11;;;;;;;4.32;3.38;;;;;;;16.57;97.67;99975.16;6158528;23;20049;-71
2021/06/15 03:41:37;;;;;;;4.95;3.53;;;;;;;16.65;97.54;99978.16;6158346;23;20010;-71
2021/06/15 03:44:06;;;;;;;7.10;3.40;;;;;;;16.25;98.63;99981.09;6158066;23;20247;-71
2021/06/15 03:46:36;;;;;;;3.90;3.15;;;;;;;16.04;98.10;99983.03;6158316;23;20021;-71
2021/06/15 03:49:06;;;;;;;5.38;3.42;;;;;;;16.22;98.43;99982.06;6158004;23;20016;-71
2021/06/15 03:51:42;;;;;;;4.72;3.08;;;;;;;15.93;97.63;99987.00;6156724;23;20245;-72
2021/06/15 03:54:11;;;;;;;6.65;3.28;;;;;;;15.97;98.77;99986.78;6158549;23;20014;-72
2021/06/15 03:56:41;;;;;;;4.68;2.88;;;;;;;16.14;97.20;99985.97;6158423;23;20024;-72
2021/06/15 03:59:08;;;;;;;4.15;2.78;;;;;;;16.12;97.85;99985.19;6168428;22;20117;-74
2021/06/15 04:01:38;;;;;;;4.75;3.05;;;;;;;16.17;97.35;99993.47;6189258;23;20015;-71
2021/06/15 04:04:13;;;;;;;4.25;3.08;;;;;;;16.19;99.18;99989.94;6188621;23;20009;-72
2021/06/15 04:06:50;;;;;;;3.97;2.92;;;;;;;16.07;99.27;99979.47;6186476;23;20025;-72
2021/06/15 04:09:23;;;;;;;4.57;2.72;;;;;;;15.85;98.24;99989.13;6189027;23;20379;-74
2021/06/15 04:11:53;;;;;;;6.10;3.10;;;;;;;16.26;99.95;99982.78;6189401;23;20016;-74
2021/06/15 04:14:20;;;;;;;4.65;2.70;;;;;;;16.09;96.47;99983.63;6187973;23;20040;-71
2021/06/15 04:16:49;;;;;;;5.85;2.78;;;;;;;16.04;97.10;99990.72;6157320;23;20005;-71
2021/06/15 04:19:21;;;;;;;4.05;2.70;;;;;;;16.18;96.64;99987.47;6157918;22;20012;-72
2021/06/15 04:21:48;;;;;;;4.03;2.40;;;;;;;15.92;98.61;100004.16;6184344;23;20009;-73
2021/06/15 04:24:20;;;;;;;4.35;2.63;;;;;;;16.43;96.54;99995.56;6184377;23;20362;-71
2021/06/15 04:26:46;;;;;;;;;;;;;;;16.21;95.43;100002.69;6185722;23;20356;-72
2021/06/15 04:29:16;;;;;;;4.32;2.25;;;;;;;16.18;96.97;100005.41;6184195;23;19985;-70
2021/06/15 04:31:43;;;;;;;3.40;2.53;;;;;;;16.15;96.00;100003.00;6183627;23;20404;-71
2021/06/15 04:34:11;;;;;;;4.15;2.80;;;;;;;16.52;94.32;99999.44;6183983;22;20012;-71
2021/06/15 04:36:39;;;;;;;3.85;2.75;;;;;;;16.75;94.03;100002.44;6182788;22;20032;-71
2021/06/15 04:39:18;;;;;;;4.03;2.90;;;;;;;16.64;94.32;100006.50;6183388;22;20019;-70
2021/06/15 04:41:56;;;;;;;3.75;2.60;;;;;;;16.71;94.78;100013.78;6183879;23;20017;-71
2021/06/15 04:44:31;;;;;;;5.15;2.67;;;;;;;17.16;94.54;100013.06;6156040;23;20367;-71
2021/06/15 04:47:22;;;;;;;3.65;2.70;;;;;;;16.78;91.79;100014.28;6183817;23;20016;-71
2021/06/15 04:49:56;;;;;;;4.23;2.63;;;;;;;16.97;94.80;100020.94;6186681;23;20064;-69
2021/06/15 04:52:25;;;;;;;2.80;2.40;;;;;;;17.07;93.80;100016.94;6161601;23;20608;-69
2021/06/15 04:54:53;;;;;;;4.40;2.78;;;;;;;17.00;92.88;100022.50;6187937;23;20364;-69
2021/06/15 04:57:32;;;;;;;4.03;2.55;;;;;;;17.05;92.46;100021.38;6187483;23;20016;-70
2021/06/15 05:00:01;;;;;;;2.75;2.40;;;;;;;16.93;91.35;100027.16;6189333;22;20024;-70
2021/06/15 05:02:28;;;;;;;4.10;2.50;;;;;;;16.97;92.68;100027.81;6188561;23;20385;-69
2021/06/15 05:04:55;;;;;;;4.07;2.92;;;;;;;16.92;91.27;100030.63;6188451;23;20020;-70
2021/06/15 05:07:22;;;;;;;2.97;2.35;;;;;;;16.78;93.76;100027.94;6188836;23;20122;-69
2021/06/15 05:09:57;;;;;;;3.00;2.65;;;;;;;16.93;92.84;100026.31;6188665;22;20009;-69
2021/06/15 05:12:24;;;;;;;4.35;2.70;;;;;;;17.10;93.35;100029.63;6188898;23;20386;-69
2021/06/15 05:14:50;;;;;;;3.47;2.53;;;;;;;16.81;96.42;100034.66;6188732;23;20020;-69
2021/06/15 05:17:20;;;;;;;5.20;3.00;;;;;;;17.01;92.60;100035.28;6162314;23;20009;-70
2021/06/15 05:19:46;;;;;;;6.75;3.10;;;;;;;16.81;93.56;100035.50;6188893;23;20016;-70
2021/06/15 05:22:23;;;;;;;5.40;3.05;;;;;;;17.01;95.82;100034.44;6188930;23;20021;-70
2021/06/15 05:24:54;;;;;;;4.05;3.22;;;;;;;17.05;93.74;100033.38;6162405;23;20267;-70
2021/06/15 05:27:24;;;;;;;3.15;2.50;;;;;;;16.87;93.41;100026.63;6188705;23;20359;-70
2021/06/15 05:29:50;;;;;;;30.45;27.35;;;;;;;17.00;93.25;100020.78;6189537;23;20020;-70
2021/06/15 05:32:16;;;;;;;6.75;3.42;;;;;;;17.13;92.90;100024.31;6161959;22;20085;-70
2021/06/15 05:34:43;;;;;;;5.13;3.00;;;;;;;17.35;93.05;100027.38;6162773;23;20291;-70
2021/06/15 05:37:10;;;;;;;5.72;2.90;;;;;;;17.40;91.98;100022.00;6189055;23;20016;-70
2021/06/15 05:39:37;;;;;;;4.00;2.90;;;;;;;17.27;92.89;100021.03;6161985;23;20016;-70
2021/06/15 05:42:04;;;;;;;4.78;2.80;;;;;;;17.45;92.67;100020.00;6161998;23;20013;-70
2021/06/15 05:44:30;;;;;;;5.45;2.85;;;;;;;17.73;91.88;100025.28;6161764;23;20012;-70
2021/06/15 05:46:56;;;;;;;4.07;2.90;;;;;;;17.80;89.37;100029.19;6161799;22;20013;-70
2021/06/15 05:49:22;;;;;;;6.07;2.42;;;;;;;17.28;89.31;100026.09;6162245;23;20005;-69
2021/06/15 05:51:48;;;;;;;4.97;2.70;;;;;;;17.72;88.81;100022.81;6161678;23;20345;-70
2021/06/15 05:54:14;;;;;;;5.85;2.80;;;;;;;17.73;89.14;100033.00;6188381;23;20056;-70
2021/06/15 05:56:40;;;;;;;3.10;2.60;;;;;;;18.11;87.85;100033.38;6161867;22;20013;-70
2021/06/15 05:59:05;;;;;;;4.70;2.08;;;;;;;17.93;87.41;100039.59;6188856;22;20005;-70
2021/06/15 06:01:33;;;;;;;6.55;2.50;;;;;;;17.98;88.28;100029.88;6188631;23;20033;-70
2021/06/15 06:09:09;;;;;;;3.38;2.22;;;;;;;18.20;86.09;100027.72;6188889;23;20264;-70
2021/06/15 06:11:35;;;;;;;4.50;2.10;;;;;;;18.28;84.98;100016.97;6161964;23;20016;-70
2021/06/15 06:14:01;;;;;;;3.70;2.13;;;;;;;17.96;86.49;100016.28;6188426;23;20436;-69
2021/06/15 06:16:27;;;;;;;3.30;1.80;;;;;;;18.00;84.88;100023.75;6188361;23;20029;-70
2021/06/15 06:18:53;;;;;;;2.88;2.25;;;;;;;18.04;86.42;100016.66;6188329;23;20015;-70
2021/06/15 06:21:19;;;;;;;3.83;2.03;;;;;;;18.38;86.32;100018.91;6187987;23;20013;-70
2021/06/15 06:23:45;;;;;;;3.50;2.22;;;;;;;18.41;86.61;100023.03;6215527;23;20004;-70
2021/06/15 06:26:11;;;;;;;2.85;1.83;;;;;;;18.44;84.31;100017.75;6218303;22;20012;-70
2021/06/15 06:28:36;;;;;;;2.90;1.70;;;;;;;18.48;83.46;100017.47;6192134;22;20015;-70
2021/06/15 06:31:02;;;;;;;3.00;2.33;;;;;;;18.43;80.07;100006.63;6218339;22;20386;-70
2021/06/15 06:33:27;;;;;;;4.13;1.73;;;;;;;18.47;80.61;100000.38;6218487;22;20015;-70
2021/06/15 06:35:53;;;;;;;3.28;2.20;;;;;;;18.62;78.91;100007.16;6218376;23;20015;-70
2021/06/15 06:38:18;;;;;;;3.95;1.90;;;;;;;18.75;78.68;100008.09;6218261;22;20031;-70
2021/06/15 06:40:44;;;;;;;2.00;1.60;;;;;;;18.59;78.61;100009.09;6218711;22;20381;-70
2021/06/15 06:43:10;;;;;;;3.40;2.30;;;;;;;18.83;76.91;100016.19;6218235;22;20386;-70
2021/06/15 06:45:36;;;;;;;4.00;1.70;;;;;;;18.94;77.84;100007.78;6191576;22;20032;-69
2021/06/15 06:48:07;;;;;;;3.15;1.80;;;;;;;19.10;76.10;100007.66;6218549;22;21009;-70
2021/06/15 06:50:33;;;;;;;3.47;2.17;;;;;;;19.03;75.84;99999.50;6218143;22;20008;-69
2021/06/15 06:52:59;;;;;;;4.15;2.20;;;;;;;19.28;76.36;100001.34;6191579;22;20263;-69
2021/06/15 06:55:24;;;;;;;4.38;2.22;;;;;;;19.24;74.15;100002.47;6218067;22;20008;-70
2021/06/15 06:57:50;;;;;;;3.00;2.13;;;;;;;19.30;76.34;99997.75;6218231;22;20016;-70
2021/06/15 07:00:16;;;;;;;2.33;1.80;;;;;;;19.35;75.90;100007.81;6218930;23;20001;-70
2021/06/15 07:02:41;;;;;;;3.83;1.65;;;;;;;19.15;75.56;100003.06;6191759;22;20263;-70
2021/06/15 07:05:07;;;;;;;2.67;1.60;;;;;;;19.10;74.96;100002.50;6218076;22;20040;-69
2021/06/15 07:07:34;;;;;;;3.47;1.60;;;;;;;19.36;74.78;100009.44;6191485;22;20262;-70
2021/06/15 07:09:59;;;;;;;2.22;1.70;;;;;;;18.82;74.29;100001.63;6190953;22;20001;-70
2021/06/15 07:12:25;;;;;;;3.85;1.70;;;;;;;19.21;75.97;99995.78;6191456;23;20016;-70
2021/06/15 07:14:51;;;;;;;5.53;1.80;;;;;;;19.47;76.31;100005.25;6219380;23;20319;-70
2021/06/15 07:17:17;;;;;;;4.10;1.70;;;;;;;18.85;76.41;100004.03;6217957;22;20020;-70
2021/06/15 07:19:42;;;;;;;2.88;1.50;;;;;;;19.13;75.98;100002.31;6218302;22;20386;-72
2021/06/15 07:22:08;;;;;;;4.53;1.63;;;;;;;18.97;75.29;99998.13;6218155;22;20471;-70
2021/06/15 07:24:34;;;;;;;4.68;1.83;;;;;;;18.99;78.33;100003.19;6218186;22;20070;-70
2021/06/15 07:27:00;;;;;;;4.28;1.70;;;;;;;19.32;77.31;99990.75;6190988;22;20405;-70
2021/06/15 07:29:26;;;;;;;6.65;1.85;;;;;;;19.08;76.55;99992.28;6218707;22;20012;-70
2021/06/15 07:31:51;;;;;;;3.17;1.65;;;;;;;19.10;76.76;99992.19;6217584;22;20390;-70
2021/06/15 07:34:17;;;;;;;3.95;1.90;;;;;;;19.17;76.16;99988.31;6192169;22;20008;-70
2021/06/15 07:36:43;;;;;;;5.18;1.80;;;;;;;19.37;76.26;99993.06;6219399;22;20105;-70
2021/06/15 07:39:08;;;;;;;3.13;1.58;;;;;;;19.26;74.17;99987.72;6219549;22;20040;-70
2021/06/15 07:41:34;;;;;;;5.75;1.58;;;;;;;19.32;76.08;99987.34;6219211;23;20341;-70
2021/06/15 07:43:59;;;;;;;4.20;1.80;;;;;;;19.21;74.24;99976.88;6192507;22;20233;-69
2021/06/15 07:46:25;;;;;;;3.65;1.30;;;;;;;19.43;73.17;99984.94;6219502;23;20035;-69
2021/06/15 07:48:52;;;;;;;2.10;1.40;;;;;;;19.31;72.35;99978.78;6219038;23;20012;-70
2021/06/15 07:51:17;;;;;;;4.40;1.67;;;;;;;19.46;70.65;99975.25;6219011;22;20382;-70
2021/06/15 07:53:43;;;;;;;4.45;1.50;;;;;;;19.97;71.19;99971.00;6219306;22;20101;-70
2021/06/15 07:56:08;;;;;;;4.78;1.88;;;;;;;20.04;69.75;99977.44;6219238;22;20373;-70
2021/06/15 07:58:34;;;;;;;2.67;1.50;;;;;;;20.08;70.08;99971.13;6219087;22;20024;-70
2021/06/15 08:01:00;;;;;;;3.03;1.45;;;;;;;19.71;69.48;99964.16;6219306;22;20283;-70
2021/06/15 08:03:26;;;;;;;5.32;2.30;;;;;;;20.09;69.48;99964.19;6219134;22;20032;-69
2021/06/15 08:05:52;;;;;;;3.53;2.00;;;;;;;20.12;69.31;99969.16;6219361;22;20390;-70
2021/06/15 08:08:18;;;;;;;4.13;1.80;;;;;;;20.20;70.56;99959.19;6218987;22;20016;-70
2021/06/15 08:10:44;;;;;;;4.30;1.67;;;;;;;20.32;68.91;99964.31;6219191;22;20406;-70
2021/06/15 08:13:09;;;;;;;5.50;1.65;;;;;;;20.28;67.73;99964.66;6192360;22;20020;-69
2021/06/15 08:15:35;;;;;;;3.85;1.33;;;;;;;20.09;69.51;99953.88;6191974;23;20023;-70
2021/06/15 08:18:00;;;;;;;2.63;2.05;;;;;;;19.70;73.84;99962.50;6192381;22;20009;-69
2021/06/15 08:20:26;;;;;;;4.50;2.30;;;;;;;19.80;75.15;99960.97;6192552;23;20009;-70
2021/06/15 08:22:51;;;;;;;8.55;2.65;;;;;;;19.95;74.48;99962.53;6192333;22;20012;-70
2021/06/15 08:25:17;;;;;;;5.65;2.50;;;;;;;19.99;73.89;99961.41;6219300;22;20109;-70
2021/06/15 08:27:42;;;;;;;4.47;2.50;;;;;;;19.87;72.10;99967.38;6219276;22;20000;-70
2021/06/15 08:30:09;;;;;;;3.10;2.10;;;;;;;20.16;72.82;99957.69;6192753;23;20016;-70
2021/06/15 08:32:35;;;;;;;5.78;2.20;;;;;;;20.07;73.72;99951.38;6218949;22;20012;-70
2021/06/15 08:35:00;;;;;;;3.38;2.28;;;;;;;20.23;71.78;99959.78;6218761;22;20013;-70
2021/06/15 08:37:26;;;;;;;4.80;2.08;;;;;;;20.21;71.53;99955.66;6218969;22;20011;-70
2021/06/15 08:39:51;;;;;;;3.25;2.10;;;;;;;20.67;71.61;99951.56;6219087;22;20013;-69
2021/06/15 08:42:17;;;;;;;3.05;2.10;;;;;;;20.50;71.29;99957.09;6192187;22;20239;-70
2021/06/15 08:44:44;;;;;;;5.68;1.90;;;;;;;20.93;68.88;99957.47;6218653;23;20471;-69
2021/06/15 08:47:14;;;;;;;4.07;1.73;;;;;;;20.74;68.74;99952.78;6218839;22;20004;-70
2021/06/15 08:49:40;;;;;;;3.85;1.75;;;;;;;20.69;68.69;99954.88;6218914;22;20031;-70
2021/06/15 08:52:05;;;;;;;2.97;2.08;;;;;;;20.33;71.03;99955.66;6192188;22;20346;-70
2021/06/15 08:54:31;;;;;;;2.63;1.83;;;;;;;20.83;67.79;99959.06;6218623;23;20390;-70
2021/06/15 08:56:57;;;;;;;3.58;1.90;;;;;;;21.07;70.15;99949.59;6218632;22;20009;-70
2021/06/15 08:59:26;;;;;;;3.85;2.03;;;;;;;20.87;71.48;99948.41;6191987;22;20710;-70
2021/06/15 09:01:54;;;;;;;6.10;2.30;;;;;;;21.76;71.10;99946.22;6220000;22;20013;-70
2021/06/15 09:04:19;;;;;;;4.07;2.15;;;;;;;21.56;69.98;99950.28;6192498;22;20093;-69
2021/06/15 09:06:46;;;;;;;4.88;2.85;;;;;;;21.03;70.24;99943.84;6218710;23;20036;-70
2021/06/15 09:09:12;;;;;;;2.58;2.05;;;;;;;21.62;68.21;99947.25;6218833;22;20370;-70
2021/06/15 09:11:50;;;;;;;3.03;2.03;;;;;;;20.99;69.83;99950.13;6218803;22;20032;-70
2021/06/15 09:14:15;;;;;;;2.20;1.70;;;;;;;21.42;65.86;99946.13;6218552;23;20008;-70
2021/06/15 09:16:48;;;;;;;3.42;2.33;;;;;;;21.50;67.60;99945.56;6218898;22;20019;-70
2021/06/15 09:19:16;;;;;;;4.13;2.03;;;;;;;21.44;67.84;99948.59;6218974;22;20351;-70
2021/06/15 09:21:43;;;;;;;3.22;2.20;;;;;;;21.22;69.61;99951.91;6218993;22;20371;-70
2021/06/15 09:24:27;;;;;;;4.78;2.45;;;;;;;21.16;70.17;99949.78;6218745;22;20015;-70
2021/06/15 09:27:00;;;;;;;4.65;2.10;;;;;;;21.23;68.63;99947.56;6219103;22;20067;-70
2021/06/15 09:29:50;;;;;;;3.75;1.70;;;;;;;21.66;62.39;99943.50;6218749;22;20100;-70
2021/06/15 09:32:23;;;;;;;1.50;1.17;;;;;;;21.52;59.94;99956.63;6192326;22;20044;-70
2021/06/15 09:34:55;;;;;;;3.17;1.20;;;;;;;21.71;59.04;99943.97;6218758;22;20016;-70
2021/06/15 09:37:38;;;;;;;4.05;1.25;;;;;;;21.45;63.01;99939.91;6192082;22;20012;-70
2021/06/15 09:40:20;;;;;;;3.63;1.00;;;;;;;21.80;59.81;99942.47;6218766;22;20011;-70
2021/06/15 09:43:11;;;;;;;11.15;4.07;;;;;;;21.12;59.38;99940.56;6218606;22;20101;-70
2021/06/15 09:45:47;;;;;;;5.03;1.20;;;;;;;22.17;59.54;99928.41;6218653;22;20021;-70
2021/06/15 09:48:22;;;;;;;3.42;1.25;;;;;;;22.24;57.21;99940.78;6218633;22;20028;-70
2021/06/15 09:51:16;;;;;;;3.60;1.48;;;;;;;22.00;58.24;99932.31;6191892;22;20019;-70
2021/06/15 09:53:44;;;;;;;1.75;1.15;;;;;;;22.02;58.55;99927.84;6218555;22;20101;-70
2021/06/15 09:56:13;;;;;;;4.82;1.30;;;;;;;21.95;58.10;99918.84;6191501;22;20116;-70
2021/06/15 09:58:42;;;;;;;4.18;1.17;;;;;;;22.02;57.47;99922.66;6218655;23;20019;-70
2021/06/15 10:01:09;;;;;;;4.07;1.40;;;;;;;21.67;58.59;99921.03;6220783;22;20017;-70
2021/06/15 10:03:35;;;;;;;3.33;1.80;;;;;;;21.88;57.55;99928.03;6218590;22;20016;-70
2021/06/15 10:06:01;;;;;;;2.00;1.00;;;;;;;21.68;58.29;99920.91;6192066;22;20085;-71
2021/06/15 10:08:44;;;;;;;2.65;1.00;;;;;;;21.61;57.94;99929.25;6218325;22;20004;-71
2021/06/15 10:11:10;;;;;;;5.65;2.72;;;;;;;21.71;58.56;99925.84;6218269;22;20279;-70
2021/06/15 10:13:37;;;;;;;2.90;1.60;;;;;;;21.88;57.72;99929.81;6218685;22;20005;-71
2021/06/15 10:16:03;;;;;;;3.90;1.02;;;;;;;21.67;57.30;99927.00;6191949;22;20013;-71
2021/06/15 10:18:28;;;;;;;9.73;5.95;;;;;;;21.75;57.38;99929.84;6218402;22;20271;-70
2021/06/15 10:20:54;;;;;;;2.55;1.02;;;;;;;21.57;56.93;99932.03;6218614;22;20020;-70
2021/06/15 10:23:20;;;;;;;4.00;1.25;;;;;;;21.81;58.28;99929.44;6218571;22;20005;-71
2021/06/15 10:25:47;;;;;;;5.40;1.80;;;;;;;21.68;56.09;99935.59;6218493;22;20085;-70
2021/06/15 10:28:13;;;;;;;1.25;0.95;;;;;;;21.56;55.75;99932.16;6218945;22;20023;-70
2021/06/15 10:30:42;;;;;;;1.17;0.80;;;;;;;21.36;56.36;99920.69;6218382;22;20017;-70
2021/06/15 10:33:16;;;;;;;4.13;1.17;;;;;;;21.92;56.06;99932.06;6191436;22;20356;-70
2021/06/15 10:35:46;;;;;;;2.83;1.05;;;;;;;21.53;56.18;99933.22;6218624;22;20023;-70
2021/06/15 10:38:31;;;;;;;6.75;1.27;;;;;;;21.58;57.02;99930.28;6218008;23;20015;-70
2021/06/15 10:41:01;;;;;;;1.55;0.88;;;;;;;21.56;55.70;99927.00;6217926;23;20387;-70
2021/06/15 10:43:31;;;;;;;1.23;0.82;;;;;;;21.26;55.89;99931.81;6218569;22;20041;-70
2021/06/15 10:46:07;;;;;;;1.40;0.88;;;;;;;21.61;54.87;99924.88;6218412;22;20013;-70
2021/06/15 10:48:40;;;;;;;2.05;0.80;;;;;;;21.58;55.97;99918.19;6218806;23;20008;-70
2021/06/15 10:51:22;;;;;;;1.83;1.00;;;;;;;21.36;56.02;99912.09;6191177;22;20019;-70
2021/06/15 10:53:48;;;;;;;;;;;;;;;21.67;56.14;99908.88;6192680;22;20268;-70
2021/06/15 10:56:19;;;;;;;3.63;1.00;;;;;;;21.49;56.65;99905.09;6218173;22;19941;-70
2021/06/15 10:58:47;;;;;;;1.30;1.00;;;;;;;21.49;55.64;99900.72;6191229;22;20355;-70
2021/06/15 11:01:24;;;;;;;1.25;1.00;;;;;;;21.34;55.15;99901.88;6218311;23;20071;-70
2021/06/15 11:03:52;;;;;;;2.53;0.88;;;;;;;21.50;55.56;99894.63;6218255;22;20024;-70
2021/06/15 11:06:37;;;;;;;2.05;0.70;;;;;;;21.52;55.44;99902.28;6191749;22;20240;-70
2021/06/15 11:09:03;;;;;;;1.50;0.88;;;;;;;21.38;56.00;99897.28;6219384;23;20036;-70
2021/06/15 11:11:33;;;;;;;1.55;0.90;;;;;;;21.65;55.27;99879.72;6219067;23;20013;-71
2021/06/15 11:14:10;;;;;;;2.38;1.10;;;;;;;21.53;56.29;99894.41;6219337;22;20028;-71
2021/06/15 11:17:06;;;;;;;1.63;1.00;;;;;;;21.66;55.32;99880.53;6219372;22;20009;-70
2021/06/15 11:19:32;;;;;;;1.52;0.90;;;;;;;21.34;55.44;99894.13;6219595;23;20351;-70
2021/06/15 11:22:09;;;;;;;1.95;0.90;;;;;;;21.66;55.93;99883.97;6219589;22;20275;-70
2021/06/15 11:24:38;;;;;;;1.15;0.75;;;;;;;21.66;56.38;99894.31;6219178;22;20248;-70
2021/06/15 11:27:31;;;;;;;4.72;0.90;;;;;;;21.50;56.84;99891.22;6192954;22;20120;-70
2021/06/15 11:30:13;;;;;;;2.28;0.90;;;;;;;21.50;58.18;99886.88;6220485;22;20009;-70
2021/06/15 11:33:02;;;;;;;1.13;0.98;;;;;;;21.59;58.57;99882.75;6192256;22;20008;-70
2021/06/15 11:35:30;;;;;;;1.25;0.88;;;;;;;21.28;57.87;99873.03;6219632;22;20009;-70
2021/06/15 11:38:03;;;;;;;0.95;0.70;;;;;;;21.24;56.49;99869.03;6192512;22;20109;-70
2021/06/15 11:40:30;;;;;;;2.55;0.88;;;;;;;21.23;56.58;99862.22;6219534;22;20037;-70
2021/06/15 11:43:08;;;;;;;1.83;0.90;;;;;;;21.42;56.74;99868.50;6219198;22;20048;-70
2021/06/15 11:45:38;;;;;;;2.63;0.63;;;;;;;21.15;58.04;99867.97;6219044;23;20048;-70
2021/06/15 11:48:34;;;;;;;2.03;0.63;;;;;;;21.06;55.33;99865.19;6219337;22;20099;-70
2021/06/15 11:51:05;;;;;;;1.45;0.70;;;;;;;20.92;54.67;99863.59;6192185;22;20028;-71